sensor_id;sensor_type;location;lat;lon;timestamp;P1;durP1;ratioP1;P2;durP2;ratioP2
12042;SDS011;6082;49.306;12.862;2023-04-25T00:01:17;3.80;;;2.20;;
12042;SDS011;6082;49.306;12.862;2023-04-25T00:03:44;3.87;;;2.70;;
12042;SDS011;6082;49.306;12.862;2023-04-25T00:06:10;4.07;;;2.73;;
12042;SDS011;6082;49.306;12.862;2023-04-25T00:08:36;3.93;;;2.40;;
12042;SDS011;6082;49.306;12.862;2023-04-25T00:11:02;3.77;;;2.53;;
12042;SDS011;6082;49.306;12.862;2023-04-25T00:13:29;3.37;;;2.23;;
12042;SDS011;6082;49.306;12.862;2023-04-25T00:15:55;3.60;;;2.30;;
12042;SDS011;6082;49.306;12.862;2023-04-25T00:18:21;6.00;;;2.97;;
12042;SDS011;6082;49.306;12.862;2023-04-25T00:20:48;3.90;;;2.60;;
12042;SDS011;6082;49.306;12.862;2023-04-25T00:23:14;5.90;;;2.87;;
12042;SDS011;6082;49.306;12.862;2023-04-25T00:25:42;4.60;;;2.77;;
12042;SDS011;6082;49.306;12.862;2023-04-25T00:28:08;4.03;;;2.47;;
12042;SDS011;6082;49.306;12.862;2023-04-25T00:30:34;4.37;;;2.67;;
12042;SDS011;6082;49.306;12.862;2023-04-25T00:33:00;4.70;;;3.07;;
12042;SDS011;6082;49.306;12.862;2023-04-25T00:35:26;6.37;;;2.87;;
12042;SDS011;6082;49.306;12.862;2023-04-25T00:37:53;4.07;;;2.50;;
12042;SDS011;6082;49.306;12.862;2023-04-25T00:40:20;4.53;;;2.67;;
12042;SDS011;6082;49.306;12.862;2023-04-25T00:42:46;4.07;;;2.67;;
12042;SDS011;6082;49.306;12.862;2023-04-25T00:45:13;4.00;;;2.57;;
12042;SDS011;6082;49.306;12.862;2023-04-25T00:47:40;3.57;;;2.20;;
12042;SDS011;6082;49.306;12.862;2023-04-25T00:50:06;3.50;;;2.37;;
12042;SDS011;6082;49.306;12.862;2023-04-25T00:52:32;4.17;;;2.93;;
12042;SDS011;6082;49.306;12.862;2023-04-25T00:54:58;2.83;;;2.37;;
12042;SDS011;6082;49.306;12.862;2023-04-25T00:57:25;4.07;;;2.50;;
12042;SDS011;6082;49.306;12.862;2023-04-25T00:59:51;3.57;;;2.50;;
12042;SDS011;6082;49.306;12.862;2023-04-25T01:02:18;2.70;;;2.30;;
12042;SDS011;6082;49.306;12.862;2023-04-25T01:04:45;3.47;;;2.47;;
12042;SDS011;6082;49.306;12.862;2023-04-25T01:07:11;4.23;;;3.00;;
12042;SDS011;6082;49.306;12.862;2023-04-25T01:09:38;4.77;;;2.60;;
12042;SDS011;6082;49.306;12.862;2023-04-25T01:12:04;2.60;;;2.20;;
12042;SDS011;6082;49.306;12.862;2023-04-25T01:14:30;2.60;;;2.30;;
12042;SDS011;6082;49.306;12.862;2023-04-25T01:16:59;3.90;;;2.33;;
12042;SDS011;6082;49.306;12.862;2023-04-25T01:19:25;3.77;;;2.37;;
12042;SDS011;6082;49.306;12.862;2023-04-25T01:21:55;3.47;;;1.97;;
12042;SDS011;6082;49.306;12.862;2023-04-25T01:24:21;4.23;;;2.70;;
12042;SDS011;6082;49.306;12.862;2023-04-25T01:26:47;3.50;;;2.40;;
12042;SDS011;6082;49.306;12.862;2023-04-25T01:29:20;4.33;;;2.70;;
12042;SDS011;6082;49.306;12.862;2023-04-25T01:31:46;4.83;;;2.30;;
12042;SDS011;6082;49.306;12.862;2023-04-25T01:34:12;4.07;;;2.77;;
12042;SDS011;6082;49.306;12.862;2023-04-25T01:36:38;4.43;;;2.33;;
12042;SDS011;6082;49.306;12.862;2023-04-25T01:39:05;3.73;;;2.03;;
12042;SDS011;6082;49.306;12.862;2023-04-25T01:41:32;4.50;;;2.00;;
12042;SDS011;6082;49.306;12.862;2023-04-25T01:43:59;4.90;;;2.57;;
12042;SDS011;6082;49.306;12.862;2023-04-25T01:46:26;2.90;;;2.40;;
12042;SDS011;6082;49.306;12.862;2023-04-25T01:48:52;2.73;;;2.23;;
12042;SDS011;6082;49.306;12.862;2023-04-25T01:51:18;3.43;;;2.37;;
12042;SDS011;6082;49.306;12.862;2023-04-25T01:53:44;3.43;;;2.47;;
12042;SDS011;6082;49.306;12.862;2023-04-25T01:56:11;3.40;;;2.40;;
12042;SDS011;6082;49.306;12.862;2023-04-25T01:58:37;3.87;;;2.10;;
12042;SDS011;6082;49.306;12.862;2023-04-25T02:01:03;5.10;;;2.27;;
12042;SDS011;6082;49.306;12.862;2023-04-25T02:03:30;3.60;;;2.40;;
12042;SDS011;6082;49.306;12.862;2023-04-25T02:05:57;3.43;;;2.57;;
12042;SDS011;6082;49.306;12.862;2023-04-25T02:08:23;5.30;;;2.53;;
12042;SDS011;6082;49.306;12.862;2023-04-25T02:10:51;3.27;;;2.27;;
12042;SDS011;6082;49.306;12.862;2023-04-25T02:13:17;2.70;;;2.30;;
12042;SDS011;6082;49.306;12.862;2023-04-25T02:15:43;5.83;;;2.73;;
12042;SDS011;6082;49.306;12.862;2023-04-25T02:18:09;2.87;;;2.13;;
12042;SDS011;6082;49.306;12.862;2023-04-25T02:20:36;4.77;;;3.10;;
12042;SDS011;6082;49.306;12.862;2023-04-25T02:23:02;6.40;;;2.50;;
12042;SDS011;6082;49.306;12.862;2023-04-25T02:25:29;5.27;;;2.60;;
12042;SDS011;6082;49.306;12.862;2023-04-25T02:27:55;3.13;;;2.30;;
12042;SDS011;6082;49.306;12.862;2023-04-25T02:30:21;5.90;;;2.73;;
12042;SDS011;6082;49.306;12.862;2023-04-25T02:32:47;4.30;;;2.27;;
12042;SDS011;6082;49.306;12.862;2023-04-25T02:35:16;4.00;;;2.53;;
12042;SDS011;6082;49.306;12.862;2023-04-25T02:37:44;4.70;;;2.57;;
12042;SDS011;6082;49.306;12.862;2023-04-25T02:40:10;3.47;;;2.33;;
12042;SDS011;6082;49.306;12.862;2023-04-25T02:42:36;5.00;;;2.53;;
12042;SDS011;6082;49.306;12.862;2023-04-25T02:45:03;3.93;;;2.80;;
12042;SDS011;6082;49.306;12.862;2023-04-25T02:47:29;5.60;;;3.00;;
12042;SDS011;6082;49.306;12.862;2023-04-25T02:49:55;3.23;;;2.40;;
12042;SDS011;6082;49.306;12.862;2023-04-25T02:52:21;5.63;;;2.60;;
12042;SDS011;6082;49.306;12.862;2023-04-25T02:54:47;3.33;;;2.20;;
12042;SDS011;6082;49.306;12.862;2023-04-25T02:57:13;4.07;;;2.40;;
12042;SDS011;6082;49.306;12.862;2023-04-25T02:59:39;4.53;;;2.43;;
12042;SDS011;6082;49.306;12.862;2023-04-25T03:02:05;3.53;;;2.40;;
12042;SDS011;6082;49.306;12.862;2023-04-25T03:04:31;3.70;;;2.37;;
12042;SDS011;6082;49.306;12.862;2023-04-25T03:06:58;4.73;;;2.80;;
12042;SDS011;6082;49.306;12.862;2023-04-25T03:09:24;2.97;;;2.20;;
12042;SDS011;6082;49.306;12.862;2023-04-25T03:11:51;4.17;;;2.77;;
12042;SDS011;6082;49.306;12.862;2023-04-25T03:14:17;4.17;;;2.67;;
12042;SDS011;6082;49.306;12.862;2023-04-25T03:16:43;3.67;;;2.70;;
12042;SDS011;6082;49.306;12.862;2023-04-25T03:19:10;4.63;;;2.77;;
12042;SDS011;6082;49.306;12.862;2023-04-25T03:21:39;4.03;;;2.70;;
12042;SDS011;6082;49.306;12.862;2023-04-25T03:24:05;5.10;;;2.90;;
12042;SDS011;6082;49.306;12.862;2023-04-25T03:26:31;4.27;;;2.90;;
12042;SDS011;6082;49.306;12.862;2023-04-25T03:28:57;3.20;;;2.90;;
12042;SDS011;6082;49.306;12.862;2023-04-25T03:31:23;3.73;;;2.50;;
12042;SDS011;6082;49.306;12.862;2023-04-25T03:33:49;3.67;;;2.30;;
12042;SDS011;6082;49.306;12.862;2023-04-25T03:36:16;4.10;;;2.90;;
12042;SDS011;6082;49.306;12.862;2023-04-25T03:38:42;4.67;;;3.27;;
12042;SDS011;6082;49.306;12.862;2023-04-25T03:41:08;3.77;;;2.37;;
12042;SDS011;6082;49.306;12.862;2023-04-25T03:43:34;4.57;;;2.93;;
12042;SDS011;6082;49.306;12.862;2023-04-25T03:46:00;4.20;;;2.67;;
12042;SDS011;6082;49.306;12.862;2023-04-25T03:48:26;3.77;;;2.53;;
12042;SDS011;6082;49.306;12.862;2023-04-25T03:50:53;3.40;;;2.70;;
12042;SDS011;6082;49.306;12.862;2023-04-25T03:53:19;4.23;;;2.60;;
12042;SDS011;6082;49.306;12.862;2023-04-25T03:55:45;3.23;;;2.03;;
12042;SDS011;6082;49.306;12.862;2023-04-25T03:58:11;4.03;;;2.57;;
12042;SDS011;6082;49.306;12.862;2023-04-25T04:00:37;3.40;;;2.40;;
12042;SDS011;6082;49.306;12.862;2023-04-25T04:03:03;6.67;;;2.77;;
12042;SDS011;6082;49.306;12.862;2023-04-25T04:05:30;5.87;;;3.00;;
12042;SDS011;6082;49.306;12.862;2023-04-25T04:07:56;2.80;;;2.10;;
12042;SDS011;6082;49.306;12.862;2023-04-25T04:10:22;3.20;;;2.53;;
12042;SDS011;6082;49.306;12.862;2023-04-25T04:12:48;3.83;;;2.50;;
12042;SDS011;6082;49.306;12.862;2023-04-25T04:15:14;5.47;;;3.13;;
12042;SDS011;6082;49.306;12.862;2023-04-25T04:17:40;4.83;;;2.40;;
12042;SDS011;6082;49.306;12.862;2023-04-25T04:20:06;3.27;;;2.60;;
12042;SDS011;6082;49.306;12.862;2023-04-25T04:22:33;3.80;;;2.53;;
12042;SDS011;6082;49.306;12.862;2023-04-25T04:25:00;2.37;;;2.03;;
12042;SDS011;6082;49.306;12.862;2023-04-25T04:27:26;4.97;;;2.73;;
12042;SDS011;6082;49.306;12.862;2023-04-25T04:29:53;3.67;;;2.30;;
12042;SDS011;6082;49.306;12.862;2023-04-25T04:32:19;4.13;;;2.60;;
12042;SDS011;6082;49.306;12.862;2023-04-25T04:34:45;8.70;;;4.47;;
12042;SDS011;6082;49.306;12.862;2023-04-25T04:37:13;6.30;;;3.63;;
12042;SDS011;6082;49.306;12.862;2023-04-25T04:39:40;4.57;;;3.20;;
12042;SDS011;6082;49.306;12.862;2023-04-25T04:42:06;6.67;;;4.13;;
12042;SDS011;6082;49.306;12.862;2023-04-25T04:44:33;4.73;;;3.57;;
12042;SDS011;6082;49.306;12.862;2023-04-25T04:47:00;4.43;;;3.33;;
12042;SDS011;6082;49.306;12.862;2023-04-25T04:49:28;3.77;;;2.90;;
12042;SDS011;6082;49.306;12.862;2023-04-25T04:51:55;3.63;;;2.57;;
12042;SDS011;6082;49.306;12.862;2023-04-25T04:54:21;4.33;;;2.60;;
12042;SDS011;6082;49.306;12.862;2023-04-25T04:56:47;4.13;;;2.63;;
12042;SDS011;6082;49.306;12.862;2023-04-25T04:59:13;3.70;;;2.47;;
12042;SDS011;6082;49.306;12.862;2023-04-25T05:01:39;3.77;;;2.80;;
12042;SDS011;6082;49.306;12.862;2023-04-25T05:04:05;3.63;;;2.87;;
12042;SDS011;6082;49.306;12.862;2023-04-25T05:06:31;3.73;;;2.50;;
12042;SDS011;6082;49.306;12.862;2023-04-25T05:08:57;4.53;;;3.00;;
12042;SDS011;6082;49.306;12.862;2023-04-25T05:11:24;3.83;;;2.57;;
12042;SDS011;6082;49.306;12.862;2023-04-25T05:13:53;3.80;;;2.70;;
12042;SDS011;6082;49.306;12.862;2023-04-25T05:16:19;3.63;;;2.70;;
12042;SDS011;6082;49.306;12.862;2023-04-25T05:18:46;6.80;;;2.67;;
12042;SDS011;6082;49.306;12.862;2023-04-25T05:21:12;4.40;;;2.60;;
12042;SDS011;6082;49.306;12.862;2023-04-25T05:23:38;4.57;;;2.77;;
12042;SDS011;6082;49.306;12.862;2023-04-25T05:26:04;4.50;;;3.33;;
12042;SDS011;6082;49.306;12.862;2023-04-25T05:28:30;7.73;;;2.77;;
12042;SDS011;6082;49.306;12.862;2023-04-25T05:30:56;4.97;;;3.03;;
12042;SDS011;6082;49.306;12.862;2023-04-25T05:33:22;3.57;;;2.87;;
12042;SDS011;6082;49.306;12.862;2023-04-25T05:35:49;6.13;;;2.70;;
12042;SDS011;6082;49.306;12.862;2023-04-25T05:38:15;3.70;;;2.67;;
12042;SDS011;6082;49.306;12.862;2023-04-25T05:40:41;3.60;;;2.57;;
12042;SDS011;6082;49.306;12.862;2023-04-25T05:43:07;3.47;;;2.37;;
12042;SDS011;6082;49.306;12.862;2023-04-25T05:45:33;5.30;;;3.27;;
12042;SDS011;6082;49.306;12.862;2023-04-25T05:47:59;3.70;;;2.83;;
12042;SDS011;6082;49.306;12.862;2023-04-25T05:50:25;4.37;;;3.23;;
12042;SDS011;6082;49.306;12.862;2023-04-25T05:52:52;4.70;;;2.83;;
12042;SDS011;6082;49.306;12.862;2023-04-25T05:55:18;5.13;;;2.80;;
12042;SDS011;6082;49.306;12.862;2023-04-25T05:57:45;6.60;;;3.50;;
12042;SDS011;6082;49.306;12.862;2023-04-25T06:00:14;5.43;;;3.63;;
12042;SDS011;6082;49.306;12.862;2023-04-25T06:02:40;5.80;;;3.50;;
12042;SDS011;6082;49.306;12.862;2023-04-25T06:05:07;5.30;;;3.50;;
12042;SDS011;6082;49.306;12.862;2023-04-25T06:07:33;4.13;;;2.87;;
12042;SDS011;6082;49.306;12.862;2023-04-25T06:09:59;5.57;;;3.20;;
12042;SDS011;6082;49.306;12.862;2023-04-25T06:12:26;4.63;;;3.43;;
12042;SDS011;6082;49.306;12.862;2023-04-25T06:14:53;6.27;;;3.60;;
12042;SDS011;6082;49.306;12.862;2023-04-25T06:17:19;3.63;;;2.83;;
12042;SDS011;6082;49.306;12.862;2023-04-25T06:19:47;4.00;;;3.13;;
12042;SDS011;6082;49.306;12.862;2023-04-25T06:22:13;4.07;;;2.77;;
12042;SDS011;6082;49.306;12.862;2023-04-25T06:24:39;4.60;;;2.80;;
12042;SDS011;6082;49.306;12.862;2023-04-25T06:27:05;3.53;;;2.77;;
12042;SDS011;6082;49.306;12.862;2023-04-25T06:29:31;3.97;;;3.00;;
12042;SDS011;6082;49.306;12.862;2023-04-25T06:31:57;4.23;;;2.83;;
12042;SDS011;6082;49.306;12.862;2023-04-25T06:34:23;5.57;;;2.87;;
12042;SDS011;6082;49.306;12.862;2023-04-25T06:36:49;4.13;;;3.00;;
12042;SDS011;6082;49.306;12.862;2023-04-25T06:39:15;4.33;;;2.90;;
12042;SDS011;6082;49.306;12.862;2023-04-25T06:41:42;4.30;;;2.90;;
12042;SDS011;6082;49.306;12.862;2023-04-25T06:44:08;3.40;;;2.77;;
12042;SDS011;6082;49.306;12.862;2023-04-25T06:46:34;2.90;;;2.47;;
12042;SDS011;6082;49.306;12.862;2023-04-25T06:49:01;4.03;;;2.30;;
12042;SDS011;6082;49.306;12.862;2023-04-25T06:51:27;4.73;;;2.37;;
12042;SDS011;6082;49.306;12.862;2023-04-25T06:53:55;4.17;;;2.77;;
12042;SDS011;6082;49.306;12.862;2023-04-25T06:56:21;2.97;;;2.13;;
12042;SDS011;6082;49.306;12.862;2023-04-25T06:58:48;5.63;;;2.50;;
12042;SDS011;6082;49.306;12.862;2023-04-25T07:01:14;3.00;;;2.30;;
12042;SDS011;6082;49.306;12.862;2023-04-25T07:03:40;4.23;;;2.60;;
12042;SDS011;6082;49.306;12.862;2023-04-25T07:06:06;4.07;;;2.77;;
12042;SDS011;6082;49.306;12.862;2023-04-25T07:08:32;3.40;;;2.73;;
12042;SDS011;6082;49.306;12.862;2023-04-25T07:10:59;3.43;;;2.40;;
12042;SDS011;6082;49.306;12.862;2023-04-25T07:13:26;3.07;;;2.23;;
12042;SDS011;6082;49.306;12.862;2023-04-25T07:15:52;3.67;;;2.33;;
12042;SDS011;6082;49.306;12.862;2023-04-25T07:18:18;2.37;;;2.10;;
12042;SDS011;6082;49.306;12.862;2023-04-25T07:20:44;3.23;;;2.13;;
12042;SDS011;6082;49.306;12.862;2023-04-25T07:23:10;4.00;;;2.53;;
12042;SDS011;6082;49.306;12.862;2023-04-25T07:25:36;3.00;;;2.40;;
12042;SDS011;6082;49.306;12.862;2023-04-25T07:28:02;4.23;;;2.33;;
12042;SDS011;6082;49.306;12.862;2023-04-25T07:30:29;2.47;;;2.00;;
12042;SDS011;6082;49.306;12.862;2023-04-25T07:32:55;2.57;;;2.00;;
12042;SDS011;6082;49.306;12.862;2023-04-25T07:35:21;3.43;;;2.10;;
12042;SDS011;6082;49.306;12.862;2023-04-25T07:37:47;5.33;;;2.30;;
12042;SDS011;6082;49.306;12.862;2023-04-25T07:40:13;4.17;;;1.70;;
12042;SDS011;6082;49.306;12.862;2023-04-25T07:42:42;2.00;;;1.70;;
12042;SDS011;6082;49.306;12.862;2023-04-25T07:45:09;2.93;;;2.10;;
12042;SDS011;6082;49.306;12.862;2023-04-25T07:47:35;2.23;;;1.80;;
12042;SDS011;6082;49.306;12.862;2023-04-25T07:53:05;4.33;;;2.17;;
12042;SDS011;6082;49.306;12.862;2023-04-25T07:55:31;2.97;;;2.10;;
12042;SDS011;6082;49.306;12.862;2023-04-25T07:57:57;2.80;;;1.83;;
12042;SDS011;6082;49.306;12.862;2023-04-25T08:00:24;3.03;;;2.00;;
12042;SDS011;6082;49.306;12.862;2023-04-25T08:02:50;2.30;;;1.90;;
12042;SDS011;6082;49.306;12.862;2023-04-25T08:05:17;4.53;;;1.83;;
12042;SDS011;6082;49.306;12.862;2023-04-25T08:07:43;2.47;;;1.97;;
12042;SDS011;6082;49.306;12.862;2023-04-25T08:10:09;3.00;;;2.30;;
12042;SDS011;6082;49.306;12.862;2023-04-25T08:12:38;3.93;;;2.30;;
12042;SDS011;6082;49.306;12.862;2023-04-25T08:15:05;2.47;;;1.80;;
12042;SDS011;6082;49.306;12.862;2023-04-25T08:17:37;2.43;;;1.83;;
12042;SDS011;6082;49.306;12.862;2023-04-25T08:20:03;2.80;;;2.50;;
12042;SDS011;6082;49.306;12.862;2023-04-25T08:22:31;3.70;;;2.37;;
12042;SDS011;6082;49.306;12.862;2023-04-25T08:24:57;2.57;;;1.97;;
12042;SDS011;6082;49.306;12.862;2023-04-25T08:27:23;3.20;;;2.10;;
12042;SDS011;6082;49.306;12.862;2023-04-25T08:29:53;2.87;;;2.03;;
12042;SDS011;6082;49.306;12.862;2023-04-25T08:32:19;2.13;;;1.87;;
12042;SDS011;6082;49.306;12.862;2023-04-25T08:34:46;3.27;;;2.47;;
12042;SDS011;6082;49.306;12.862;2023-04-25T08:37:12;2.00;;;1.80;;
12042;SDS011;6082;49.306;12.862;2023-04-25T08:39:38;3.23;;;2.10;;
12042;SDS011;6082;49.306;12.862;2023-04-25T08:42:05;2.83;;;2.13;;
12042;SDS011;6082;49.306;12.862;2023-04-25T08:44:35;3.07;;;2.30;;
12042;SDS011;6082;49.306;12.862;2023-04-25T08:47:05;3.07;;;2.47;;
12042;SDS011;6082;49.306;12.862;2023-04-25T08:49:31;4.00;;;2.53;;
12042;SDS011;6082;49.306;12.862;2023-04-25T08:52:03;4.20;;;2.73;;
12042;SDS011;6082;49.306;12.862;2023-04-25T08:54:31;3.20;;;2.30;;
12042;SDS011;6082;49.306;12.862;2023-04-25T08:57:00;3.30;;;2.37;;
12042;SDS011;6082;49.306;12.862;2023-04-25T08:59:30;2.93;;;2.30;;
12042;SDS011;6082;49.306;12.862;2023-04-25T09:01:57;2.87;;;2.20;;
12042;SDS011;6082;49.306;12.862;2023-04-25T09:04:23;4.47;;;2.73;;
12042;SDS011;6082;49.306;12.862;2023-04-25T09:06:49;3.40;;;2.40;;
12042;SDS011;6082;49.306;12.862;2023-04-25T09:09:15;5.23;;;2.77;;
12042;SDS011;6082;49.306;12.862;2023-04-25T09:11:50;2.70;;;2.20;;
12042;SDS011;6082;49.306;12.862;2023-04-25T09:14:16;2.87;;;2.03;;
12042;SDS011;6082;49.306;12.862;2023-04-25T09:19:22;3.50;;;2.43;;
12042;SDS011;6082;49.306;12.862;2023-04-25T09:21:54;2.67;;;2.00;;
12042;SDS011;6082;49.306;12.862;2023-04-25T09:24:31;3.80;;;2.20;;
12042;SDS011;6082;49.306;12.862;2023-04-25T09:26:57;2.60;;;2.30;;
12042;SDS011;6082;49.306;12.862;2023-04-25T09:29:33;3.47;;;2.13;;
12042;SDS011;6082;49.306;12.862;2023-04-25T09:34:45;2.87;;;2.07;;
12042;SDS011;6082;49.306;12.862;2023-04-25T09:37:16;3.17;;;2.27;;
12042;SDS011;6082;49.306;12.862;2023-04-25T09:39:44;2.77;;;2.37;;
12042;SDS011;6082;49.306;12.862;2023-04-25T09:42:11;2.57;;;2.10;;
12042;SDS011;6082;49.306;12.862;2023-04-25T09:44:41;1.90;;;1.70;;
12042;SDS011;6082;49.306;12.862;2023-04-25T09:47:09;1.83;;;1.40;;
12042;SDS011;6082;49.306;12.862;2023-04-25T09:49:38;1.87;;;1.60;;
12042;SDS011;6082;49.306;12.862;2023-04-25T10:10:30;2.43;;;1.60;;
12042;SDS011;6082;49.306;12.862;2023-04-25T10:13:03;1.23;;;0.87;;
12042;SDS011;6082;49.306;12.862;2023-04-25T10:15:30;1.63;;;1.33;;
12042;SDS011;6082;49.306;12.862;2023-04-25T10:17:56;2.13;;;1.43;;
12042;SDS011;6082;49.306;12.862;2023-04-25T10:20:23;1.90;;;1.40;;
12042;SDS011;6082;49.306;12.862;2023-04-25T10:22:49;1.43;;;1.30;;
12042;SDS011;6082;49.306;12.862;2023-04-25T10:25:19;2.67;;;1.30;;
12042;SDS011;6082;49.306;12.862;2023-04-25T10:27:45;2.90;;;1.40;;
12042;SDS011;6082;49.306;12.862;2023-04-25T10:30:14;1.73;;;1.10;;
12042;SDS011;6082;49.306;12.862;2023-04-25T10:32:42;3.27;;;1.20;;
12042;SDS011;6082;49.306;12.862;2023-04-25T10:35:12;1.97;;;1.40;;
12042;SDS011;6082;49.306;12.862;2023-04-25T10:37:42;2.13;;;1.40;;
12042;SDS011;6082;49.306;12.862;2023-04-25T10:40:22;1.60;;;1.30;;
12042;SDS011;6082;49.306;12.862;2023-04-25T10:42:48;2.57;;;1.63;;
12042;SDS011;6082;49.306;12.862;2023-04-25T10:45:14;2.73;;;1.57;;
12042;SDS011;6082;49.306;12.862;2023-04-25T10:47:43;2.03;;;1.50;;
12042;SDS011;6082;49.306;12.862;2023-04-25T10:50:10;1.80;;;1.30;;
12042;SDS011;6082;49.306;12.862;2023-04-25T10:52:38;1.50;;;1.20;;
12042;SDS011;6082;49.306;12.862;2023-04-25T10:55:05;3.20;;;1.27;;
12042;SDS011;6082;49.306;12.862;2023-04-25T10:57:41;1.30;;;1.20;;
12042;SDS011;6082;49.306;12.862;2023-04-25T11:00:10;1.27;;;1.03;;
12042;SDS011;6082;49.306;12.862;2023-04-25T11:02:58;1.73;;;1.30;;
12042;SDS011;6082;49.306;12.862;2023-04-25T11:05:30;1.63;;;1.33;;
12042;SDS011;6082;49.306;12.862;2023-04-25T11:07:57;2.93;;;1.90;;
12042;SDS011;6082;49.306;12.862;2023-04-25T11:10:27;1.43;;;1.23;;
12042;SDS011;6082;49.306;12.862;2023-04-25T11:12:54;2.40;;;1.30;;
12042;SDS011;6082;49.306;12.862;2023-04-25T11:15:20;3.70;;;1.83;;
12042;SDS011;6082;49.306;12.862;2023-04-25T11:17:46;2.17;;;1.47;;
12042;SDS011;6082;49.306;12.862;2023-04-25T11:20:13;3.63;;;1.60;;
12042;SDS011;6082;49.306;12.862;2023-04-25T11:22:40;2.00;;;1.30;;
12042;SDS011;6082;49.306;12.862;2023-04-25T11:25:10;1.40;;;1.13;;
12042;SDS011;6082;49.306;12.862;2023-04-25T11:27:52;4.23;;;1.33;;
12042;SDS011;6082;49.306;12.862;2023-04-25T11:30:19;2.23;;;1.40;;
12042;SDS011;6082;49.306;12.862;2023-04-25T11:32:45;2.67;;;1.63;;
12042;SDS011;6082;49.306;12.862;2023-04-25T11:35:11;2.40;;;1.57;;
12042;SDS011;6082;49.306;12.862;2023-04-25T11:37:38;1.77;;;1.30;;
12042;SDS011;6082;49.306;12.862;2023-04-25T11:40:08;1.80;;;1.20;;
12042;SDS011;6082;49.306;12.862;2023-04-25T11:42:38;2.17;;;1.20;;
12042;SDS011;6082;49.306;12.862;2023-04-25T11:45:05;2.07;;;1.10;;
12042;SDS011;6082;49.306;12.862;2023-04-25T11:50:22;1.30;;;1.20;;
12042;SDS011;6082;49.306;12.862;2023-04-25T11:52:52;1.90;;;1.57;;
12042;SDS011;6082;49.306;12.862;2023-04-25T11:55:22;2.40;;;1.60;;
12042;SDS011;6082;49.306;12.862;2023-04-25T11:57:48;2.47;;;1.80;;
12042;SDS011;6082;49.306;12.862;2023-04-25T12:00:19;3.53;;;2.03;;
12042;SDS011;6082;49.306;12.862;2023-04-25T12:02:47;2.03;;;1.83;;
12042;SDS011;6082;49.306;12.862;2023-04-25T12:05:14;2.10;;;1.60;;
12042;SDS011;6082;49.306;12.862;2023-04-25T12:07:44;2.97;;;1.53;;
12042;SDS011;6082;49.306;12.862;2023-04-25T12:10:12;1.40;;;1.20;;
12042;SDS011;6082;49.306;12.862;2023-04-25T12:12:42;2.60;;;1.80;;
12042;SDS011;6082;49.306;12.862;2023-04-25T12:15:12;2.50;;;2.10;;
12042;SDS011;6082;49.306;12.862;2023-04-25T12:17:41;2.30;;;1.90;;
12042;SDS011;6082;49.306;12.862;2023-04-25T12:20:11;2.30;;;1.47;;
12042;SDS011;6082;49.306;12.862;2023-04-25T12:22:44;6.93;;;3.30;;
12042;SDS011;6082;49.306;12.862;2023-04-25T12:25:57;4.23;;;2.13;;
12042;SDS011;6082;49.306;12.862;2023-04-25T12:30:53;2.07;;;1.70;;
12042;SDS011;6082;49.306;12.862;2023-04-25T12:33:20;1.23;;;1.13;;
12042;SDS011;6082;49.306;12.862;2023-04-25T12:35:46;3.73;;;2.77;;
12042;SDS011;6082;49.306;12.862;2023-04-25T12:38:31;4.30;;;2.37;;
12042;SDS011;6082;49.306;12.862;2023-04-25T12:41:00;4.10;;;2.27;;
12042;SDS011;6082;49.306;12.862;2023-04-25T12:43:26;1.90;;;1.30;;
12042;SDS011;6082;49.306;12.862;2023-04-25T12:45:53;1.77;;;1.50;;
12042;SDS011;6082;49.306;12.862;2023-04-25T12:48:20;3.57;;;2.10;;
12042;SDS011;6082;49.306;12.862;2023-04-25T12:50:46;1.83;;;1.67;;
12042;SDS011;6082;49.306;12.862;2023-04-25T12:55:43;1.80;;;1.50;;
12042;SDS011;6082;49.306;12.862;2023-04-25T12:58:11;13.27;;;6.07;;
12042;SDS011;6082;49.306;12.862;2023-04-25T13:00:38;4.13;;;2.83;;
12042;SDS011;6082;49.306;12.862;2023-04-25T13:03:04;5.30;;;2.70;;
12042;SDS011;6082;49.306;12.862;2023-04-25T13:05:30;21.80;;;8.43;;
12042;SDS011;6082;49.306;12.862;2023-04-25T13:07:56;12.67;;;5.67;;
12042;SDS011;6082;49.306;12.862;2023-04-25T13:10:22;11.30;;;5.47;;
12042;SDS011;6082;49.306;12.862;2023-04-25T13:12:49;15.63;;;6.17;;
12042;SDS011;6082;49.306;12.862;2023-04-25T13:15:15;6.27;;;2.97;;
12042;SDS011;6082;49.306;12.862;2023-04-25T13:17:42;2.07;;;1.87;;
12042;SDS011;6082;49.306;12.862;2023-04-25T13:20:08;1.70;;;1.40;;
12042;SDS011;6082;49.306;12.862;2023-04-25T13:22:35;3.20;;;1.50;;
12042;SDS011;6082;49.306;12.862;2023-04-25T13:25:04;1.90;;;1.70;;
12042;SDS011;6082;49.306;12.862;2023-04-25T13:27:31;1.40;;;1.30;;
12042;SDS011;6082;49.306;12.862;2023-04-25T13:30:04;2.43;;;1.70;;
12042;SDS011;6082;49.306;12.862;2023-04-25T13:32:35;1.80;;;1.50;;
12042;SDS011;6082;49.306;12.862;2023-04-25T13:35:05;4.17;;;2.43;;
12042;SDS011;6082;49.306;12.862;2023-04-25T13:37:32;2.13;;;1.47;;
12042;SDS011;6082;49.306;12.862;2023-04-25T13:39:59;2.00;;;1.33;;
12042;SDS011;6082;49.306;12.862;2023-04-25T13:42:25;2.10;;;1.43;;
12042;SDS011;6082;49.306;12.862;2023-04-25T13:44:51;2.23;;;1.70;;
12042;SDS011;6082;49.306;12.862;2023-04-25T13:47:18;1.50;;;1.23;;
12042;SDS011;6082;49.306;12.862;2023-04-25T13:49:44;1.33;;;1.20;;
12042;SDS011;6082;49.306;12.862;2023-04-25T13:52:10;1.50;;;1.40;;
12042;SDS011;6082;49.306;12.862;2023-04-25T13:54:36;1.67;;;1.47;;
12042;SDS011;6082;49.306;12.862;2023-04-25T13:57:02;1.83;;;1.60;;
12042;SDS011;6082;49.306;12.862;2023-04-25T13:59:28;3.47;;;1.80;;
12042;SDS011;6082;49.306;12.862;2023-04-25T14:01:54;1.83;;;1.50;;
12042;SDS011;6082;49.306;12.862;2023-04-25T14:04:20;5.77;;;1.77;;
12042;SDS011;6082;49.306;12.862;2023-04-25T14:09:20;2.90;;;1.90;;
12042;SDS011;6082;49.306;12.862;2023-04-25T14:11:50;3.90;;;2.07;;
12042;SDS011;6082;49.306;12.862;2023-04-25T14:14:17;3.07;;;2.17;;
12042;SDS011;6082;49.306;12.862;2023-04-25T14:16:43;3.00;;;2.20;;
12042;SDS011;6082;49.306;12.862;2023-04-25T14:19:10;3.43;;;2.30;;
12042;SDS011;6082;49.306;12.862;2023-04-25T14:21:36;3.53;;;2.03;;
12042;SDS011;6082;49.306;12.862;2023-04-25T14:24:02;6.00;;;2.07;;
12042;SDS011;6082;49.306;12.862;2023-04-25T14:26:30;3.17;;;2.33;;
12042;SDS011;6082;49.306;12.862;2023-04-25T14:28:56;3.17;;;2.00;;
12042;SDS011;6082;49.306;12.862;2023-04-25T14:31:22;2.23;;;2.03;;
12042;SDS011;6082;49.306;12.862;2023-04-25T14:33:48;4.97;;;3.03;;
12042;SDS011;6082;49.306;12.862;2023-04-25T14:36:15;1.87;;;1.40;;
12042;SDS011;6082;49.306;12.862;2023-04-25T14:38:41;5.30;;;2.80;;
12042;SDS011;6082;49.306;12.862;2023-04-25T14:41:07;4.73;;;2.57;;
12042;SDS011;6082;49.306;12.862;2023-04-25T14:43:33;2.40;;;1.73;;
12042;SDS011;6082;49.306;12.862;2023-04-25T14:46:01;4.03;;;1.80;;
12042;SDS011;6082;49.306;12.862;2023-04-25T14:48:27;1.97;;;1.60;;
12042;SDS011;6082;49.306;12.862;2023-04-25T14:50:53;2.37;;;1.70;;
12042;SDS011;6082;49.306;12.862;2023-04-25T14:53:21;2.37;;;1.67;;
12042;SDS011;6082;49.306;12.862;2023-04-25T14:55:47;1.23;;;1.13;;
12042;SDS011;6082;49.306;12.862;2023-04-25T14:58:14;1.97;;;1.40;;
12042;SDS011;6082;49.306;12.862;2023-04-25T15:00:40;1.30;;;1.10;;
12042;SDS011;6082;49.306;12.862;2023-04-25T15:03:08;1.10;;;1.00;;
12042;SDS011;6082;49.306;12.862;2023-04-25T15:05:34;1.33;;;1.17;;
12042;SDS011;6082;49.306;12.862;2023-04-25T15:08:01;0.63;;;0.60;;
12042;SDS011;6082;49.306;12.862;2023-04-25T15:10:27;1.30;;;0.87;;
12042;SDS011;6082;49.306;12.862;2023-04-25T15:12:54;1.50;;;1.03;;
12042;SDS011;6082;49.306;12.862;2023-04-25T15:15:20;1.10;;;0.90;;
12042;SDS011;6082;49.306;12.862;2023-04-25T15:17:48;2.60;;;1.40;;
12042;SDS011;6082;49.306;12.862;2023-04-25T15:20:15;1.30;;;1.20;;
12042;SDS011;6082;49.306;12.862;2023-04-25T15:22:42;1.77;;;1.50;;
12042;SDS011;6082;49.306;12.862;2023-04-25T15:25:10;3.47;;;2.10;;